createdAt,value
2022-10-21T01:26:46.017Z,80.54
2022-10-21T01:40:09.882Z,80.39
2022-10-21T01:42:47.157Z,80.41
2022-10-21T01:45:25.757Z,80.27
2022-10-21T01:48:02.663Z,80.16
2022-10-21T01:50:39.719Z,80.11
2022-10-21T01:53:15.189Z,80.11
2022-10-21T01:55:50.129Z,80.10
2022-10-21T01:58:25.183Z,79.95
2022-10-21T02:00:59.864Z,79.91
2022-10-21T02:03:36.324Z,79.97
2022-10-21T02:06:08.835Z,80.21
2022-10-21T02:08:41.526Z,80.06
2022-10-21T02:11:15.399Z,80.04
2022-10-21T02:13:55.424Z,80.04
2022-10-21T02:16:32.652Z,79.90
2022-10-21T02:19:04.718Z,79.95
2022-10-21T02:21:38.109Z,79.98
2022-10-21T02:24:18.182Z,80.13
2022-10-21T02:26:50.313Z,79.91
2022-10-21T02:29:27.830Z,79.78
2022-10-21T02:32:10.863Z,79.80
2022-10-21T02:35:01.125Z,79.86
2022-10-21T02:37:41.410Z,79.71
2022-10-21T02:40:18.759Z,79.91
2022-10-21T02:42:55.184Z,79.98
2022-10-21T02:45:27.535Z,80.14
2022-10-21T02:47:59.619Z,80.04
2022-10-21T02:50:31.675Z,79.99
2022-10-21T02:53:04.117Z,79.93
2022-10-21T02:55:36.163Z,80.05
2022-10-21T02:58:08.298Z,79.99
2022-10-21T03:00:43.730Z,80.05
2022-10-21T03:03:16.254Z,80.07
2022-10-21T03:05:48.638Z,80.16
2022-10-21T03:08:20.785Z,80.07
2022-10-21T03:10:53.574Z,80.20
2022-10-21T03:13:26.177Z,80.14
2022-10-21T03:15:58.197Z,80.17
2022-10-21T03:18:30.327Z,80.16
2022-10-21T03:21:02.421Z,80.12
2022-10-21T03:23:34.962Z,80.19
2022-10-21T03:26:07.218Z,80.27
2022-10-21T03:28:39.620Z,80.21
2022-10-21T03:31:11.825Z,80.04
2022-10-21T03:33:43.984Z,80.19
2022-10-21T03:36:16.193Z,80.25
2022-10-21T03:38:48.410Z,80.34
2022-10-21T03:41:20.483Z,80.34
2022-10-21T03:43:52.454Z,80.31
2022-10-21T03:46:24.684Z,80.16
2022-10-21T03:49:01.014Z,80.12
2022-10-21T03:51:36.659Z,80.10
2022-10-21T03:54:08.728Z,80.15
2022-10-21T03:56:40.791Z,80.09
2022-10-21T03:59:12.904Z,80.09
2022-10-21T04:01:45.270Z,80.09
2022-10-21T04:04:17.251Z,80.03
2022-10-21T04:06:49.306Z,79.99
2022-10-21T04:55:47.507Z,80.17
2022-10-21T05:51:27.141Z,79.92
2022-10-21T06:21:47.277Z,80.22
2022-10-21T06:24:19.391Z,80.51
2022-10-21T06:26:52.190Z,80.37
2022-10-21T06:29:25.315Z,80.31
2022-10-21T06:31:57.319Z,80.42
2022-10-21T06:34:29.446Z,80.29
2022-10-21T06:37:01.513Z,80.28
2022-10-21T06:39:33.550Z,80.18
2022-10-21T06:42:06.031Z,80.35
2022-10-21T06:44:46.941Z,80.23
2022-10-21T06:47:19.738Z,80.33
2022-10-21T06:49:54.169Z,80.20
2022-10-21T06:55:03.182Z,80.26
2022-10-21T06:57:38.285Z,80.20
2022-10-21T07:00:15.463Z,79.99
2022-10-21T07:02:47.798Z,79.61
2022-10-21T07:05:20.042Z,79.65
2022-10-21T07:07:54.493Z,79.71
2022-10-21T07:58:36.750Z,79.81
2022-10-21T08:01:07.323Z,79.65
2022-10-21T08:03:36.362Z,79.67
2022-10-21T08:06:06.493Z,79.58
2022-10-21T08:08:36.111Z,79.51
2022-10-21T08:11:05.674Z,79.43
2022-10-21T08:13:34.712Z,79.27
2022-10-21T08:16:05.900Z,79.33
2022-10-21T08:18:34.366Z,79.17
2022-10-21T08:21:04.441Z,79.38
2022-10-21T08:23:32.776Z,79.01
2022-10-21T08:26:01.166Z,79.04
2022-10-21T08:28:30.988Z,78.75
2022-10-21T08:31:07.467Z,78.58
2022-10-21T08:33:36.958Z,78.48
2022-10-21T08:36:06.523Z,78.38
2022-10-21T08:38:35.282Z,78.04
2022-10-21T08:41:17.790Z,78.13
2022-10-21T08:43:46.388Z,78.13
2022-10-21T08:46:19.695Z,78.12
2022-10-21T08:48:54.277Z,77.95
2022-10-21T08:51:35.428Z,77.84
2022-10-21T08:54:11.952Z,77.88
2022-10-21T08:56:41.213Z,78.13
2022-10-21T08:59:22.016Z,77.91
2022-10-21T09:01:59.148Z,77.92
2022-10-21T09:04:39.101Z,77.91
2022-10-21T09:07:20.089Z,77.94
2022-10-21T09:10:44.073Z,77.85
2022-10-21T09:13:20.447Z,77.83
2022-10-21T09:16:00.499Z,77.86
2022-10-21T09:18:43.699Z,78.29
2022-10-21T09:21:22.704Z,78.09
2022-10-21T09:24:04.378Z,77.99
2022-10-21T09:26:40.825Z,77.84
2022-10-21T09:29:28.923Z,77.65
2022-10-21T09:32:08.444Z,77.42
2022-10-21T09:34:45.237Z,77.53
2022-10-21T09:37:24.908Z,77.62
2022-10-21T09:40:02.770Z,77.62
2022-10-21T09:42:46.840Z,77.13
2022-10-21T09:45:24.893Z,77.11
2022-10-21T09:47:58.347Z,77.21
2022-10-21T09:50:28.115Z,77.21
2022-10-21T09:53:06.117Z,77.38
2022-10-21T09:56:04.046Z,77.41
2022-10-21T09:58:48.132Z,77.42
2022-10-21T10:01:19.045Z,77.74
2022-10-21T10:03:48.938Z,77.45
2022-10-21T10:06:32.906Z,77.25
2022-10-21T10:09:25.329Z,76.89
2022-10-21T10:11:56.931Z,76.83
2022-10-21T10:14:29.665Z,77.15
2022-10-21T10:17:17.069Z,77.38
2022-10-21T10:20:19.529Z,76.97
2022-10-21T10:23:07.925Z,77.17
2022-10-21T10:25:39.045Z,77.09
2022-10-21T10:28:19.543Z,77.49
2022-10-21T10:30:51.799Z,77.35
2022-10-21T10:33:23.419Z,77.05
2022-10-21T10:35:53.897Z,77.09
2022-10-21T10:38:28.375Z,76.77
2022-10-21T10:41:05.161Z,76.40
2022-10-21T10:43:35.430Z,76.57
2022-10-21T10:46:09.034Z,76.44
2022-10-21T10:48:41.530Z,75.92
2022-10-21T10:51:24.972Z,75.94
2022-10-21T10:54:02.653Z,75.71
2022-10-21T10:56:35.139Z,75.97
2022-10-21T10:59:12.484Z,75.93
2022-10-21T11:01:49.250Z,75.65
2022-10-21T11:04:25.549Z,75.68
2022-10-21T11:07:00.383Z,75.34
2022-10-21T11:12:56.622Z,75.38
2022-10-21T11:15:37.263Z,74.84
2022-10-21T11:18:25.606Z,74.81
2022-10-21T11:21:05.917Z,74.77
2022-10-21T11:24:00.560Z,74.94
2022-10-21T11:26:42.102Z,74.87
2022-10-21T11:29:25.741Z,74.73
2022-10-21T11:32:11.698Z,74.49
2022-10-21T11:34:54.015Z,74.53
2022-10-21T11:37:36.632Z,74.64
2022-10-21T11:40:17.656Z,74.61
2022-10-21T11:42:49.742Z,74.80
2022-10-21T11:45:41.340Z,74.79
2022-10-21T11:48:30.360Z,74.50
2022-10-21T11:51:14.073Z,74.15
2022-10-21T11:54:02.580Z,74.49
2022-10-21T11:56:39.457Z,74.75
2022-10-21T12:02:14.630Z,74.34
2022-10-21T12:04:51.746Z,74.56
2022-10-21T12:07:34.702Z,75.14
2022-10-21T12:10:11.114Z,75.24
2022-10-21T12:12:45.704Z,74.96
2022-10-21T12:15:20.257Z,74.72
2022-10-21T12:17:49.760Z,74.57
2022-10-21T12:20:23.977Z,74.59
2022-10-21T12:23:04.636Z,74.49
2022-10-21T12:25:42.501Z,74.61
2022-10-21T12:28:19.315Z,74.14
2022-10-21T12:30:56.660Z,74.02
2022-10-21T12:33:36.211Z,74.36
2022-10-21T12:36:18.624Z,74.45
2022-10-21T12:38:49.396Z,74.28
2022-10-21T12:41:27.542Z,74.36
2022-10-21T12:44:03.623Z,74.16
2022-10-21T12:46:39.120Z,74.27
2022-10-21T12:49:31.874Z,74.36
2022-10-21T12:52:09.974Z,73.85
2022-10-21T12:54:50.611Z,73.70
2022-10-21T12:57:28.625Z,73.72
2022-10-21T13:00:14.848Z,73.86
2022-10-21T13:03:02.083Z,73.58
2022-10-21T13:06:06.047Z,73.70
2022-10-21T13:09:01.459Z,73.78
2022-10-21T13:11:39.507Z,73.95
2022-10-21T13:14:35.049Z,74.04
2022-10-21T13:17:47.674Z,73.97
2022-10-21T13:20:48.772Z,74.01
2022-10-21T13:23:38.120Z,74.07
2022-10-21T13:26:14.238Z,74.07
2022-10-21T13:28:55.011Z,73.70
2022-10-21T13:31:23.499Z,73.60
2022-10-21T13:33:54.533Z,73.61
2022-10-21T13:36:40.390Z,73.34
2022-10-21T13:39:24.559Z,73.58
2022-10-21T13:42:00.015Z,73.63
2022-10-21T13:44:33.755Z,73.64
2022-10-21T13:47:19.965Z,73.66
2022-10-21T13:49:54.676Z,73.93
2022-10-21T13:52:28.188Z,73.86
2022-10-21T13:55:01.376Z,73.97
2022-10-21T13:57:48.486Z,74.01
2022-10-21T14:00:22.448Z,73.96
2022-10-21T14:02:53.176Z,74.00
2022-10-21T14:05:36.959Z,74.02
2022-10-21T14:12:01.739Z,74.02
2022-10-21T14:14:32.285Z,73.90
2022-10-21T14:17:02.952Z,74.00
2022-10-21T14:19:34.758Z,74.13
2022-10-21T14:22:04.207Z,74.19
2022-10-21T14:24:38.856Z,74.15
2022-10-21T14:27:11.316Z,74.22
2022-10-21T14:29:40.810Z,74.34
2022-10-21T14:32:14.060Z,74.46
2022-10-21T14:35:00.310Z,74.38
2022-10-21T14:37:36.022Z,74.32
2022-10-21T14:40:12.015Z,74.51
2022-10-21T14:42:41.765Z,74.51
2022-10-21T14:45:16.932Z,74.67
2022-10-21T14:47:51.230Z,74.75
2022-10-21T14:50:23.780Z,74.83
2022-10-21T14:52:53.308Z,74.95
2022-10-21T14:55:29.207Z,74.99
2022-10-21T14:58:04.754Z,75.07
2022-10-21T15:00:39.707Z,75.18
2022-10-21T15:03:10.228Z,75.04
2022-10-21T15:05:44.015Z,75.16
2022-10-21T15:08:24.899Z,75.28
2022-10-21T15:11:22.712Z,75.46
2022-10-21T15:14:06.840Z,75.52
2022-10-21T15:19:09.944Z,75.45
2022-10-21T15:21:46.159Z,75.48
2022-10-21T15:24:20.408Z,75.56
2022-10-21T15:26:52.251Z,75.52
2022-10-21T15:29:48.910Z,75.64
2022-10-21T15:32:20.846Z,75.67
2022-10-21T15:34:52.220Z,75.84
2022-10-21T15:37:20.623Z,75.99
2022-10-21T15:39:49.183Z,76.02
2022-10-21T15:42:18.850Z,75.89
2022-10-21T15:44:49.592Z,75.98
2022-10-21T15:47:18.570Z,76.03
2022-10-21T15:49:48.702Z,76.16
2022-10-21T15:52:17.065Z,76.24
2022-10-21T15:54:45.464Z,76.30
2022-10-21T15:57:17.195Z,76.19
2022-10-21T15:59:45.702Z,76.33
2022-10-21T16:02:17.171Z,76.44
2022-10-21T16:04:46.469Z,76.61
2022-10-21T16:07:21.254Z,76.64
2022-10-21T16:09:50.025Z,76.67
2022-10-21T16:12:21.446Z,76.66
2022-10-21T16:14:49.756Z,76.78
2022-10-21T16:17:18.627Z,76.88
2022-10-21T16:19:47.043Z,76.99
2022-10-21T16:22:20.169Z,77.06
2022-10-21T16:24:48.645Z,77.14
2022-10-21T16:27:26.595Z,77.26
2022-10-21T16:30:15.777Z,77.44
2022-10-21T16:32:44.253Z,77.41
2022-10-21T16:35:13.647Z,77.47
2022-10-21T16:37:42.418Z,77.49
2022-10-21T16:40:18.443Z,77.62
2022-10-21T16:42:47.470Z,77.71
2022-10-21T16:45:17.145Z,77.79
2022-10-21T16:47:50.537Z,77.85
2022-10-21T16:50:21.407Z,77.92
2022-10-21T16:52:50.004Z,77.86
2022-10-21T16:55:18.935Z,77.93
2022-10-21T16:57:47.366Z,77.97
2022-10-21T17:00:17.375Z,77.95
2022-10-21T17:02:47.304Z,77.96
2022-10-21T17:05:15.924Z,77.99
2022-10-21T17:07:44.416Z,78.07
2022-10-21T17:10:13.340Z,77.93
2022-10-21T17:12:42.361Z,77.98
2022-10-21T17:15:15.022Z,77.97
2022-10-21T17:17:43.479Z,77.94
2022-10-21T17:20:12.402Z,78.03
2022-10-21T17:22:41.699Z,78.05
2022-10-21T17:25:12.155Z,78.08
2022-10-21T17:27:40.909Z,78.06
2022-10-21T17:30:11.881Z,78.21
2022-10-21T17:32:40.242Z,78.39
2022-10-21T17:35:17.681Z,78.34
2022-10-21T17:37:47.375Z,78.32
2022-10-21T17:40:21.038Z,78.31
2022-10-21T17:42:50.139Z,78.49
2022-10-21T17:45:22.948Z,78.49
2022-10-21T17:47:52.864Z,78.67
2022-10-21T17:50:23.339Z,78.52
2022-10-21T17:52:53.304Z,78.69
2022-10-21T17:55:21.874Z,78.71
2022-10-21T17:57:50.308Z,78.62
2022-10-21T18:00:18.940Z,78.61
2022-10-21T18:02:47.417Z,78.66
2022-10-21T18:05:17.558Z,78.66
2022-10-21T18:07:46.234Z,78.56
2022-10-21T18:14:13.615Z,78.57
2022-10-21T18:16:42.187Z,78.88
2022-10-21T18:19:11.480Z,78.81
2022-10-21T18:21:40.288Z,78.76
2022-10-21T18:24:12.581Z,78.72
2022-10-21T18:26:42.015Z,78.64
2022-10-21T18:29:11.874Z,78.76
2022-10-21T18:31:40.839Z,78.73
2022-10-21T18:34:11.519Z,78.75
2022-10-21T18:36:41.718Z,78.79
2022-10-21T18:39:13.820Z,78.95
2022-10-21T18:41:42.612Z,78.76
2022-10-21T18:44:13.777Z,78.79
2022-10-21T18:47:51.173Z,78.96
2022-10-21T18:50:19.832Z,79.12
2022-10-21T18:52:48.353Z,79.25
2022-10-21T18:55:16.958Z,79.29
2022-10-21T18:57:45.649Z,79.36
2022-10-21T19:00:14.778Z,79.31
2022-10-21T19:02:43.300Z,79.26
2022-10-21T19:05:11.764Z,79.27
2022-10-21T19:07:41.665Z,79.21
2022-10-21T19:10:52.320Z,79.16
2022-10-21T19:13:20.813Z,79.16
2022-10-21T19:15:49.265Z,79.29
2022-10-21T19:18:17.781Z,79.24
2022-10-21T19:20:46.187Z,79.19
2022-10-21T19:23:14.616Z,79.18
2022-10-21T19:25:43.069Z,79.21
2022-10-21T19:28:11.619Z,79.29
2022-10-21T19:30:40.119Z,79.35
2022-10-21T19:33:08.499Z,79.17
2022-10-21T19:35:37.654Z,79.09
2022-10-21T19:38:11.590Z,79.18
2022-10-21T19:43:22.666Z,79.28
2022-10-21T19:45:52.549Z,79.34
2022-10-21T19:48:21.207Z,79.48
2022-10-21T19:50:50.169Z,79.51
2022-10-21T19:53:18.943Z,79.53
2022-10-21T19:55:47.303Z,79.48
2022-10-21T19:58:15.666Z,79.53
2022-10-21T20:00:44.018Z,79.57
2022-10-21T20:03:12.803Z,79.51
2022-10-21T20:05:41.850Z,79.42
2022-10-21T20:08:13.235Z,79.39
2022-10-21T20:14:13.788Z,79.37
2022-10-21T20:16:42.559Z,79.53
2022-10-21T20:19:19.755Z,79.56
2022-10-21T20:21:48.899Z,79.45
2022-10-21T20:24:17.549Z,79.39
2022-10-21T20:26:50.512Z,79.40
2022-10-21T20:29:18.922Z,79.35
2022-10-21T20:31:47.333Z,79.26
2022-10-21T20:34:15.896Z,79.14
2022-10-21T20:36:44.636Z,79.09
2022-10-21T20:47:39.002Z,79.36
2022-10-21T20:50:09.353Z,79.41
2022-10-21T20:52:37.764Z,79.37
2022-10-21T20:55:07.478Z,79.53
2022-10-21T20:57:36.890Z,79.56
2022-10-21T21:00:08.587Z,79.58
2022-10-21T21:02:38.549Z,79.51
2022-10-21T21:05:11.580Z,79.45
2022-10-21T21:07:40.278Z,79.35
2022-10-21T21:10:09.633Z,79.33
2022-10-21T21:12:43.368Z,79.37
2022-10-21T21:15:14.594Z,79.29
2022-10-21T21:17:42.998Z,79.19
2022-10-21T21:20:12.154Z,79.11
2022-10-21T21:22:40.859Z,79.24
2022-10-21T21:25:10.683Z,79.11
2022-10-21T21:27:39.216Z,78.98
2022-10-21T21:30:10.142Z,78.88
2022-10-21T21:32:38.785Z,78.93
2022-10-21T21:35:09.563Z,78.87
2022-10-21T21:37:37.912Z,78.80
2022-10-21T21:40:10.724Z,78.73
2022-10-21T21:42:39.486Z,78.80
2022-10-21T21:45:12.929Z,78.84
2022-10-21T21:47:41.361Z,78.82
2022-10-21T21:50:10.311Z,78.86
2022-10-21T21:52:38.777Z,79.01
2022-10-21T21:55:08.654Z,79.06
2022-10-21T21:57:37.050Z,79.00
2022-10-21T22:00:08.092Z,78.98
2022-10-21T22:02:36.416Z,78.99
2022-10-21T22:05:06.275Z,79.10
2022-10-21T22:07:36.079Z,79.11
2022-10-21T22:10:05.491Z,79.10
2022-10-21T22:12:34.325Z,79.20
2022-10-21T22:15:46.941Z,79.23
2022-10-21T22:18:16.743Z,79.33
2022-10-21T22:20:45.767Z,79.47
2022-10-21T22:23:14.205Z,79.46
2022-10-21T22:25:42.574Z,79.51
2022-10-21T22:28:11.178Z,79.37
2022-10-21T22:30:39.540Z,79.36
2022-10-21T22:33:07.930Z,79.49
2022-10-21T22:35:38.914Z,79.44
2022-10-21T22:38:07.601Z,79.50
2022-10-21T22:40:39.079Z,79.52
2022-10-21T22:43:07.746Z,79.47
2022-10-21T22:45:36.678Z,79.50
2022-10-21T22:48:05.454Z,79.49
2022-10-21T22:50:33.919Z,79.53
2022-10-21T22:53:02.473Z,79.52
2022-10-21T22:55:31.274Z,79.62
2022-10-21T22:57:59.595Z,79.75
2022-10-21T23:00:28.018Z,79.79
2022-10-21T23:02:56.591Z,79.76
2022-10-21T23:05:25.027Z,79.90
2022-10-21T23:07:53.492Z,79.90
2022-10-21T23:10:21.812Z,80.09
2022-10-21T23:12:51.668Z,80.01
2022-10-21T23:15:20.278Z,79.98
2022-10-21T23:17:49.400Z,80.19
2022-10-21T23:20:18.117Z,80.10
2022-10-21T23:22:46.755Z,80.25
2022-10-21T23:25:16.680Z,80.38
2022-10-21T23:27:45.066Z,80.34
2022-10-21T23:30:14.119Z,80.37
2022-10-21T23:32:42.986Z,80.56
2022-10-21T23:35:12.592Z,80.48
2022-10-21T23:37:41.728Z,80.52
2022-10-21T23:40:12.179Z,80.56
2022-10-21T23:42:42.835Z,80.59
2022-10-21T23:45:12.239Z,80.62
2022-10-21T23:47:41.010Z,80.81
2022-10-21T23:50:10.663Z,80.97
2022-10-21T23:52:39.130Z,81.05
2022-10-21T23:55:10.931Z,81.18
2022-10-21T23:57:39.615Z,81.22
